createdAt,value
2023-01-19T00:01:47.109Z,4.80
2023-01-19T00:04:15.656Z,4.10
2023-01-19T00:06:44.449Z,4.43
2023-01-19T00:09:15.721Z,4.87
2023-01-19T00:11:44.572Z,4.87
2023-01-19T00:14:12.935Z,5.17
2023-01-19T00:16:43.530Z,4.87
2023-01-19T00:19:12.002Z,5.80
2023-01-19T00:21:40.988Z,5.40
2023-01-19T00:24:09.801Z,5.13
2023-01-19T00:26:40.570Z,5.00
2023-01-19T00:29:09.126Z,5.07
2023-01-19T00:31:38.064Z,4.73
2023-01-19T00:34:08.279Z,4.80
2023-01-19T00:36:36.905Z,5.60
2023-01-19T00:39:05.788Z,4.23
2023-01-19T00:41:48.080Z,4.53
2023-01-19T00:44:16.679Z,4.50
2023-01-19T00:46:45.320Z,4.90
2023-01-19T00:49:15.637Z,5.40
2023-01-19T00:51:44.675Z,6.93
2023-01-19T00:54:13.084Z,4.73
2023-01-19T00:56:41.655Z,5.83
2023-01-19T00:59:09.998Z,5.70
2023-01-19T01:01:45.805Z,5.30
2023-01-19T01:04:16.267Z,4.53
2023-01-19T01:06:48.095Z,4.70
2023-01-19T01:09:16.806Z,4.57
2023-01-19T01:11:45.871Z,5.20
2023-01-19T01:14:15.194Z,5.40
2023-01-19T01:16:44.004Z,6.80
2023-01-19T01:19:12.569Z,5.53
2023-01-19T01:21:43.243Z,4.93
2023-01-19T01:24:11.801Z,6.87
2023-01-19T01:26:44.706Z,4.30
2023-01-19T01:29:13.666Z,4.97
2023-01-19T01:31:42.603Z,5.90
2023-01-19T01:34:11.696Z,5.03
2023-01-19T01:36:40.862Z,6.00
2023-01-19T01:39:19.575Z,6.67
2023-01-19T01:41:48.257Z,5.63
2023-01-19T01:44:51.387Z,5.40
2023-01-19T01:47:24.815Z,5.80
2023-01-19T01:49:55.436Z,6.10
2023-01-19T01:52:25.061Z,5.03
2023-01-19T01:54:54.973Z,5.23
2023-01-19T01:57:23.666Z,6.00
2023-01-19T01:59:52.657Z,5.63
2023-01-19T02:02:42.105Z,6.77
2023-01-19T02:05:13.612Z,5.10
2023-01-19T02:08:04.748Z,6.30
2023-01-19T02:10:52.642Z,5.27
2023-01-19T02:13:21.814Z,5.77
2023-01-19T02:15:52.006Z,6.40
2023-01-19T02:18:21.446Z,5.37
2023-01-19T02:21:00.420Z,4.60
2023-01-19T02:23:38.636Z,4.80
2023-01-19T02:26:09.763Z,6.07
2023-01-19T02:28:39.561Z,5.90
2023-01-19T02:31:13.029Z,7.17
2023-01-19T02:33:41.474Z,8.20
2023-01-19T02:36:11.759Z,7.30
2023-01-19T02:38:42.341Z,7.23
2023-01-19T02:41:13.886Z,6.40
2023-01-19T02:43:43.740Z,6.63
2023-01-19T02:46:12.537Z,7.57
2023-01-19T02:48:41.692Z,6.30
2023-01-19T02:51:13.866Z,5.70
2023-01-19T02:53:55.295Z,5.50
2023-01-19T02:56:36.343Z,5.77
2023-01-19T02:59:09.233Z,5.93
2023-01-19T03:01:48.261Z,5.00
2023-01-19T03:04:21.978Z,6.40
2023-01-19T03:06:53.235Z,6.23
2023-01-19T03:09:30.257Z,6.53
2023-01-19T03:12:06.376Z,5.37
2023-01-19T03:14:45.222Z,5.57
2023-01-19T03:17:15.049Z,6.40
2023-01-19T03:19:44.540Z,6.47
2023-01-19T03:22:18.443Z,6.57
2023-01-19T03:24:49.770Z,6.83
2023-01-19T03:27:22.428Z,7.30
2023-01-19T03:29:53.185Z,6.77
2023-01-19T03:32:23.472Z,6.90
2023-01-19T03:34:54.493Z,5.90
2023-01-19T03:37:23.334Z,6.20
2023-01-19T03:39:53.522Z,7.83
2023-01-19T03:42:24.415Z,6.20
2023-01-19T03:44:55.748Z,6.73
2023-01-19T03:47:25.261Z,5.90
2023-01-19T03:49:54.834Z,7.07
2023-01-19T03:52:29.756Z,7.67
2023-01-19T03:54:59.965Z,7.37
2023-01-19T03:57:28.663Z,7.20
2023-01-19T03:59:57.377Z,8.70
2023-01-19T04:02:27.342Z,7.20
2023-01-19T04:04:56.057Z,6.67
2023-01-19T04:07:24.623Z,6.87
2023-01-19T04:09:53.078Z,6.87
2023-01-19T04:12:23.428Z,7.57
2023-01-19T04:14:52.069Z,8.60
2023-01-19T04:17:20.793Z,7.47
2023-01-19T04:19:49.441Z,7.80
2023-01-19T04:22:17.917Z,8.30
2023-01-19T04:24:46.462Z,9.00
2023-01-19T04:27:16.633Z,8.77
2023-01-19T04:29:47.582Z,9.10
2023-01-19T04:32:16.388Z,7.87
2023-01-19T04:34:50.794Z,8.37
2023-01-19T04:37:19.697Z,9.93
2023-01-19T04:39:48.332Z,7.40
2023-01-19T04:42:17.099Z,8.53
2023-01-19T04:44:46.933Z,9.10
2023-01-19T04:47:15.698Z,10.13
2023-01-19T04:49:44.342Z,8.43
2023-01-19T04:52:13.046Z,8.87
2023-01-19T04:54:41.716Z,10.00
2023-01-19T04:57:10.386Z,9.70
2023-01-19T04:59:39.079Z,9.30
2023-01-19T05:02:09.347Z,8.77
2023-01-19T05:04:45.410Z,10.87
2023-01-19T05:07:14.503Z,10.70
2023-01-19T05:09:43.057Z,8.97
2023-01-19T05:12:11.840Z,10.97
2023-01-19T05:14:40.544Z,9.80
2023-01-19T05:17:10.553Z,10.73
2023-01-19T05:19:39.087Z,10.00
2023-01-19T05:22:08.025Z,9.70
2023-01-19T05:24:36.807Z,10.80
2023-01-19T05:27:05.555Z,13.17
2023-01-19T05:29:34.450Z,12.67
2023-01-19T05:32:03.266Z,10.60
2023-01-19T05:34:33.336Z,11.10
2023-01-19T05:37:02.428Z,11.67
2023-01-19T05:39:31.338Z,12.00
2023-01-19T05:41:59.975Z,11.43
2023-01-19T05:44:28.598Z,11.73
2023-01-19T05:46:59.377Z,13.03
2023-01-19T05:49:28.160Z,11.23
2023-01-19T05:51:58.287Z,12.30
2023-01-19T05:54:26.691Z,11.57
2023-01-19T05:56:55.365Z,14.93
2023-01-19T05:59:25.307Z,11.63
2023-01-19T06:01:54.086Z,11.57
2023-01-19T06:04:22.956Z,11.90
2023-01-19T06:06:52.879Z,12.63
2023-01-19T06:09:22.772Z,11.23
2023-01-19T06:11:54.291Z,11.67
2023-01-19T06:14:23.293Z,10.03
2023-01-19T06:16:51.918Z,13.63
2023-01-19T06:19:21.065Z,12.30
2023-01-19T06:21:52.506Z,10.30
2023-01-19T06:25:01.796Z,11.23
2023-01-19T06:27:33.624Z,14.90
2023-01-19T06:30:02.315Z,14.67
2023-01-19T06:32:31.155Z,15.67
2023-01-19T06:35:00.234Z,23.67
2023-01-19T06:37:30.779Z,16.90
2023-01-19T06:40:00.440Z,11.40
2023-01-19T06:42:30.944Z,11.73
2023-01-19T06:44:59.521Z,18.10
2023-01-19T06:47:28.395Z,12.60
2023-01-19T06:49:57.075Z,13.60
2023-01-19T06:52:26.049Z,12.17
2023-01-19T06:55:02.345Z,12.00
2023-01-19T06:57:30.991Z,9.40
2023-01-19T07:00:12.717Z,9.27
2023-01-19T07:02:43.968Z,10.10
2023-01-19T07:05:14.622Z,9.80
2023-01-19T07:07:45.033Z,9.30
2023-01-19T07:10:18.382Z,9.07
2023-01-19T07:12:47.601Z,9.83
2023-01-19T07:15:17.244Z,9.63
2023-01-19T07:18:05.865Z,10.30
2023-01-19T07:20:35.528Z,9.90
2023-01-19T07:23:04.220Z,10.50
2023-01-19T07:25:34.911Z,8.53
2023-01-19T07:28:03.434Z,10.07
2023-01-19T07:30:34.084Z,9.37
2023-01-19T07:33:03.682Z,8.30
2023-01-19T07:35:32.993Z,8.50
2023-01-19T07:38:01.493Z,12.60
2023-01-19T07:40:30.321Z,9.97
2023-01-19T07:43:00.711Z,8.20
2023-01-19T07:45:39.924Z,8.47
2023-01-19T07:48:08.993Z,8.37
2023-01-19T07:50:37.891Z,6.30
2023-01-19T07:53:07.580Z,11.23
2023-01-19T07:55:36.385Z,8.97
2023-01-19T07:58:07.724Z,8.97
2023-01-19T08:00:45.956Z,7.77
2023-01-19T08:03:14.717Z,11.70
2023-01-19T08:05:44.761Z,10.87
2023-01-19T08:08:14.089Z,7.17
2023-01-19T08:10:43.319Z,6.83
2023-01-19T08:13:13.500Z,6.80
2023-01-19T08:15:43.016Z,6.80
2023-01-19T08:18:30.263Z,5.23
2023-01-19T08:21:17.864Z,7.80
2023-01-19T08:24:05.599Z,9.83
2023-01-19T08:27:00.102Z,9.33
2023-01-19T08:29:56.506Z,5.20
2023-01-19T08:32:43.877Z,6.30
2023-01-19T08:35:31.266Z,9.37
2023-01-19T08:38:18.379Z,7.17
2023-01-19T08:41:06.063Z,12.73
2023-01-19T08:43:53.782Z,3.50
2023-01-19T08:46:42.410Z,2.40
2023-01-19T08:49:29.378Z,2.50
2023-01-19T08:51:59.885Z,3.43
2023-01-19T08:54:29.570Z,3.97
2023-01-19T08:56:58.895Z,3.13
2023-01-19T08:59:33.588Z,3.40
2023-01-19T09:02:23.314Z,3.60
2023-01-19T09:05:10.619Z,3.93
2023-01-19T09:07:48.364Z,8.20
2023-01-19T09:10:18.052Z,4.10
2023-01-19T09:12:50.727Z,3.80
2023-01-19T09:15:19.805Z,4.50
2023-01-19T09:17:49.964Z,3.70
2023-01-19T09:20:18.838Z,3.73
2023-01-19T09:22:47.799Z,3.00
2023-01-19T09:25:18.451Z,3.43
2023-01-19T09:27:46.997Z,4.10
2023-01-19T09:30:17.288Z,3.87
2023-01-19T09:32:46.567Z,3.40
2023-01-19T09:35:22.210Z,2.90
2023-01-19T09:37:51.016Z,2.50
2023-01-19T09:40:20.729Z,2.27
2023-01-19T09:42:56.587Z,2.40
2023-01-19T09:45:31.068Z,3.27
2023-01-19T09:48:02.169Z,2.83
2023-01-19T09:50:36.818Z,2.60
2023-01-19T09:53:11.511Z,2.20
2023-01-19T09:55:42.986Z,2.30
2023-01-19T09:58:31.999Z,3.13
2023-01-19T10:01:08.656Z,3.00
2023-01-19T10:03:39.565Z,2.30
2023-01-19T10:06:11.743Z,2.60
2023-01-19T10:08:44.664Z,2.40
2023-01-19T10:11:20.433Z,1.73
2023-01-19T10:13:52.680Z,1.80
2023-01-19T10:16:29.885Z,2.63
2023-01-19T10:19:00.927Z,6.30
2023-01-19T10:21:34.949Z,2.50
2023-01-19T10:24:07.474Z,2.10
2023-01-19T10:26:39.063Z,2.07
2023-01-19T10:29:11.583Z,2.23
2023-01-19T10:31:41.880Z,2.80
2023-01-19T10:34:12.072Z,3.93
2023-01-19T10:36:42.996Z,2.80
2023-01-19T10:39:15.067Z,3.00
2023-01-19T10:41:46.256Z,3.50
2023-01-19T10:44:24.915Z,4.23
2023-01-19T10:46:56.242Z,3.40
2023-01-19T10:49:32.150Z,3.90
2023-01-19T10:52:03.624Z,3.60
2023-01-19T10:54:33.218Z,3.63
2023-01-19T10:57:05.233Z,4.50
2023-01-19T10:59:36.798Z,4.93
2023-01-19T11:02:18.476Z,5.67
2023-01-19T11:04:50.149Z,4.70
2023-01-19T11:07:23.652Z,5.47
2023-01-19T11:10:23.019Z,8.30
2023-01-19T11:13:02.784Z,6.70
2023-01-19T11:18:30.726Z,5.50
2023-01-19T11:21:04.025Z,6.10
2023-01-19T11:23:35.178Z,7.03
2023-01-19T11:26:17.448Z,6.90
2023-01-19T11:28:53.578Z,6.60
2023-01-19T11:31:35.250Z,6.40
2023-01-19T11:34:22.241Z,5.87
2023-01-19T11:36:58.397Z,5.33
2023-01-19T11:39:29.479Z,6.87
2023-01-19T11:42:05.443Z,5.80
2023-01-19T11:44:35.903Z,6.87
2023-01-19T11:47:20.428Z,5.93
2023-01-19T11:49:52.891Z,5.90
2023-01-19T11:52:27.865Z,5.60
2023-01-19T11:54:58.955Z,5.30
2023-01-19T11:57:29.175Z,4.97
2023-01-19T12:00:03.772Z,5.23
2023-01-19T12:02:42.735Z,5.07
2023-01-19T12:05:14.685Z,5.97
2023-01-19T12:07:45.862Z,6.40
2023-01-19T12:10:23.178Z,5.43
2023-01-19T12:12:54.002Z,5.77
2023-01-19T12:15:26.824Z,4.77
2023-01-19T12:18:00.439Z,6.53
2023-01-19T12:20:32.338Z,5.83
2023-01-19T12:23:07.196Z,5.83
2023-01-19T12:25:48.750Z,5.63
2023-01-19T12:28:23.489Z,5.10
2023-01-19T12:30:53.696Z,5.63
2023-01-19T12:33:25.459Z,5.40
2023-01-19T12:35:59.950Z,5.10
2023-01-19T12:38:44.823Z,5.57
2023-01-19T12:41:23.143Z,7.40
2023-01-19T12:44:19.489Z,6.03
2023-01-19T12:46:49.703Z,6.03
2023-01-19T12:49:28.153Z,6.17
2023-01-19T12:52:13.759Z,7.27
2023-01-19T12:54:50.651Z,5.87
2023-01-19T12:57:23.096Z,5.00
2023-01-19T12:59:59.211Z,5.77
2023-01-19T13:03:31.021Z,6.23
2023-01-19T13:06:03.030Z,6.37
2023-01-19T13:08:57.965Z,5.53
2023-01-19T13:11:29.362Z,5.97
2023-01-19T13:14:38.047Z,6.53
2023-01-19T13:17:27.742Z,5.07
2023-01-19T13:20:13.776Z,6.77
2023-01-19T13:23:19.372Z,6.73
2023-01-19T13:25:56.269Z,5.73
2023-01-19T13:28:32.175Z,6.37
2023-01-19T13:31:02.893Z,5.83
2023-01-19T13:33:41.098Z,5.63
2023-01-19T13:36:21.044Z,6.00
2023-01-19T13:38:52.843Z,6.73
2023-01-19T13:41:23.969Z,6.07
2023-01-19T13:43:58.711Z,5.40
2023-01-19T13:46:32.065Z,6.60
2023-01-19T13:49:05.728Z,6.20
2023-01-19T13:51:34.356Z,7.13
2023-01-19T13:54:03.087Z,6.40
2023-01-19T13:56:31.884Z,9.20
2023-01-19T13:59:10.149Z,10.40
2023-01-19T14:01:51.297Z,7.00
2023-01-19T14:04:29.787Z,6.90
2023-01-19T14:07:00.523Z,5.97
2023-01-19T14:09:29.514Z,6.63
2023-01-19T14:12:14.406Z,7.40
2023-01-19T14:14:44.661Z,7.13
2023-01-19T14:17:32.518Z,5.73
2023-01-19T14:20:06.731Z,7.73
2023-01-19T14:22:45.237Z,7.60
2023-01-19T14:25:27.799Z,6.20
2023-01-19T14:28:27.612Z,7.63
2023-01-19T14:30:57.907Z,9.97
2023-01-19T14:33:43.783Z,7.30
2023-01-19T14:36:29.717Z,8.47
2023-01-19T14:39:00.210Z,6.70
2023-01-19T14:41:34.693Z,6.70
2023-01-19T14:44:10.239Z,7.30
2023-01-19T14:46:40.043Z,10.90
2023-01-19T14:49:09.936Z,8.20
2023-01-19T14:51:39.796Z,7.87
2023-01-19T14:54:15.601Z,6.23
2023-01-19T14:56:44.269Z,6.47
2023-01-19T14:59:12.760Z,6.23
2023-01-19T15:01:41.486Z,8.00
2023-01-19T15:04:12.132Z,5.70
2023-01-19T15:06:46.312Z,6.70
2023-01-19T15:09:32.352Z,6.70
2023-01-19T15:12:01.519Z,7.37
2023-01-19T15:14:32.328Z,6.30
2023-01-19T15:17:01.819Z,8.70
2023-01-19T15:19:30.641Z,7.57
2023-01-19T15:22:00.994Z,10.40
2023-01-19T15:24:30.541Z,8.40
2023-01-19T15:27:02.215Z,7.97
2023-01-19T15:29:39.903Z,7.13
2023-01-19T15:32:15.936Z,7.73
2023-01-19T15:34:44.372Z,7.70
2023-01-19T15:37:14.708Z,7.50
2023-01-19T15:39:43.622Z,7.93
2023-01-19T15:42:37.801Z,6.87
2023-01-19T15:45:24.575Z,7.90
2023-01-19T15:47:53.334Z,6.80
2023-01-19T15:50:21.696Z,9.67
2023-01-19T15:52:51.501Z,8.00
2023-01-19T15:55:20.323Z,7.23
2023-01-19T15:57:49.632Z,8.17
2023-01-19T16:00:18.850Z,8.00
2023-01-19T16:02:47.699Z,7.20
2023-01-19T16:05:16.389Z,6.60
2023-01-19T16:07:47.239Z,6.30
2023-01-19T16:10:29.720Z,7.20
2023-01-19T16:13:00.045Z,6.93
2023-01-19T16:15:28.805Z,8.10
2023-01-19T16:18:02.794Z,7.90
2023-01-19T16:20:31.375Z,7.43
2023-01-19T16:23:14.565Z,8.30
2023-01-19T16:25:45.841Z,6.83
2023-01-19T16:28:14.624Z,7.10
2023-01-19T16:30:43.476Z,6.83
2023-01-19T16:33:13.989Z,6.70
2023-01-19T16:35:42.467Z,6.30
2023-01-19T16:38:11.350Z,8.23
2023-01-19T16:40:40.422Z,7.37
2023-01-19T16:43:15.393Z,6.47
2023-01-19T16:45:58.595Z,7.93
2023-01-19T16:48:32.414Z,6.43
2023-01-19T16:51:03.295Z,5.80
2023-01-19T16:53:32.481Z,7.77
2023-01-19T16:56:00.830Z,7.50
2023-01-19T16:58:30.889Z,6.37
2023-01-19T17:01:00.082Z,5.70
2023-01-19T17:03:29.269Z,5.87
2023-01-19T17:05:57.668Z,7.87
2023-01-19T17:08:27.588Z,8.37
2023-01-19T17:10:56.483Z,7.20
2023-01-19T17:13:25.807Z,6.67
2023-01-19T17:16:01.017Z,5.20
2023-01-19T17:18:31.826Z,5.63
2023-01-19T17:21:02.607Z,5.80
2023-01-19T17:23:32.017Z,5.60
2023-01-19T17:26:00.994Z,7.10
2023-01-19T17:28:29.999Z,5.60
2023-01-19T17:31:06.287Z,6.70
2023-01-19T17:33:35.529Z,6.70
2023-01-19T17:36:06.116Z,5.53
2023-01-19T17:38:35.095Z,5.50
2023-01-19T17:41:04.013Z,5.57
2023-01-19T17:43:33.061Z,7.90
2023-01-19T17:46:51.814Z,6.93
2023-01-19T17:49:23.827Z,7.97
2023-01-19T17:51:54.552Z,7.70
2023-01-19T17:54:31.637Z,5.63
2023-01-19T17:57:00.212Z,6.60
2023-01-19T17:59:29.218Z,5.83
2023-01-19T18:01:58.462Z,7.27
2023-01-19T18:04:30.243Z,8.50
2023-01-19T18:07:00.312Z,8.00
2023-01-19T18:09:29.141Z,10.13
2023-01-19T18:12:05.548Z,8.10
2023-01-19T18:14:34.811Z,7.00
2023-01-19T18:17:03.538Z,5.80
2023-01-19T18:19:33.907Z,6.80
2023-01-19T18:22:05.679Z,7.33
2023-01-19T18:24:34.154Z,7.67
2023-01-19T18:27:05.500Z,6.70
2023-01-19T18:29:37.579Z,6.10
2023-01-19T18:32:09.423Z,7.03
2023-01-19T18:34:41.183Z,7.10
2023-01-19T18:37:09.795Z,7.30
2023-01-19T18:39:38.899Z,7.73
2023-01-19T18:42:07.556Z,7.97
2023-01-19T18:44:36.530Z,7.40
2023-01-19T18:47:17.251Z,13.77
2023-01-19T18:50:19.205Z,11.00
2023-01-19T18:52:48.983Z,8.40
2023-01-19T18:55:18.374Z,5.30
2023-01-19T18:57:51.131Z,4.80
2023-01-19T19:00:28.907Z,6.90
2023-01-19T19:02:58.659Z,6.77
2023-01-19T19:05:28.816Z,6.60
2023-01-19T19:08:22.892Z,4.90
2023-01-19T19:11:17.995Z,5.73
2023-01-19T19:13:46.800Z,5.20
2023-01-19T19:16:15.401Z,5.60
2023-01-19T19:18:44.171Z,5.30
2023-01-19T19:21:15.169Z,4.33
2023-01-19T19:23:44.191Z,5.00
2023-01-19T19:26:14.517Z,4.87
2023-01-19T19:28:43.442Z,4.70
2023-01-19T19:31:16.894Z,7.70
2023-01-19T19:33:45.649Z,4.40
2023-01-19T19:36:16.231Z,4.87
2023-01-19T19:38:47.749Z,3.93
2023-01-19T19:41:18.434Z,3.90
2023-01-19T19:43:47.357Z,4.80
2023-01-19T19:46:18.160Z,4.63
2023-01-19T19:48:47.284Z,3.73
2023-01-19T19:51:19.792Z,4.83
2023-01-19T19:53:51.322Z,5.50
2023-01-19T19:56:22.306Z,4.60
2023-01-19T19:58:51.566Z,4.87
2023-01-19T20:01:24.000Z,5.73
2023-01-19T20:03:54.584Z,5.43
2023-01-19T20:06:26.290Z,8.43
2023-01-19T20:08:56.844Z,10.53
2023-01-19T20:11:29.023Z,7.93
2023-01-19T20:13:57.948Z,8.27
2023-01-19T20:16:29.296Z,10.63
2023-01-19T20:18:58.059Z,9.50
2023-01-19T20:21:29.946Z,10.73
2023-01-19T20:24:01.829Z,13.50
2023-01-19T20:26:33.393Z,12.80
2023-01-19T20:29:06.652Z,19.00
2023-01-19T20:31:37.285Z,14.70
2023-01-19T20:34:07.861Z,13.97
2023-01-19T20:36:38.504Z,12.57
2023-01-19T20:39:11.259Z,8.03
2023-01-19T20:41:43.695Z,8.87
2023-01-19T20:44:13.177Z,7.63
2023-01-19T20:46:44.584Z,8.20
2023-01-19T20:49:13.556Z,7.30
2023-01-19T20:51:46.896Z,6.50
2023-01-19T20:54:17.145Z,7.03
2023-01-19T20:56:46.306Z,6.80
2023-01-19T20:59:15.452Z,5.80
2023-01-19T21:01:46.579Z,7.13
2023-01-19T21:04:15.685Z,6.23
2023-01-19T21:06:45.828Z,7.47
2023-01-19T21:09:14.556Z,6.13
2023-01-19T21:11:43.868Z,5.93
2023-01-19T21:14:15.249Z,6.23
2023-01-19T21:16:44.043Z,6.80
2023-01-19T21:19:13.446Z,6.53
2023-01-19T21:21:42.194Z,7.13
2023-01-19T21:24:13.014Z,7.83
2023-01-19T21:26:44.268Z,6.63
2023-01-19T21:29:14.239Z,7.00
2023-01-19T21:31:43.101Z,7.90
2023-01-19T21:34:12.292Z,6.10
2023-01-19T21:36:44.904Z,7.23
2023-01-19T21:39:17.224Z,5.90
2023-01-19T21:41:46.626Z,7.40
2023-01-19T21:44:15.412Z,6.93
2023-01-19T21:46:44.392Z,6.37
2023-01-19T21:49:31.390Z,5.97
2023-01-19T21:51:59.733Z,6.53
2023-01-19T21:54:30.220Z,6.83
2023-01-19T21:56:58.732Z,6.40
2023-01-19T21:59:29.751Z,7.50
2023-01-19T22:01:58.737Z,5.03
2023-01-19T22:04:27.655Z,4.50
2023-01-19T22:06:56.233Z,6.60
2023-01-19T22:09:24.524Z,6.03
2023-01-19T22:11:54.613Z,6.30
2023-01-19T22:14:22.987Z,5.30
2023-01-19T22:16:51.506Z,6.40
2023-01-19T22:19:20.849Z,6.00
2023-01-19T22:21:50.139Z,5.70
2023-01-19T22:24:18.837Z,5.70
2023-01-19T22:26:47.196Z,6.13
2023-01-19T22:32:15.512Z,6.27
2023-01-19T22:35:09.458Z,5.43
2023-01-19T22:37:38.579Z,5.77
2023-01-19T22:40:08.409Z,6.47
2023-01-19T22:42:36.800Z,6.00
2023-01-19T22:45:08.295Z,6.50
2023-01-19T22:47:37.559Z,6.90
2023-01-19T22:50:06.923Z,6.57
2023-01-19T22:52:35.775Z,6.63
2023-01-19T22:55:04.431Z,6.73
2023-01-19T22:57:36.066Z,6.23
2023-01-19T23:00:19.912Z,6.60
2023-01-19T23:02:49.557Z,5.67
2023-01-19T23:05:18.495Z,6.10
2023-01-19T23:07:47.573Z,5.47
2023-01-19T23:10:16.961Z,5.33
2023-01-19T23:12:48.833Z,5.30
2023-01-19T23:15:18.641Z,6.30
2023-01-19T23:17:49.169Z,5.90
2023-01-19T23:20:18.555Z,5.53
2023-01-19T23:22:47.264Z,7.47
2023-01-19T23:25:18.585Z,4.30
2023-01-19T23:27:48.541Z,6.27
2023-01-19T23:30:19.469Z,6.30
2023-01-19T23:32:49.742Z,6.20
2023-01-19T23:35:18.440Z,5.87
2023-01-19T23:37:46.823Z,4.87
2023-01-19T23:40:15.888Z,5.60
2023-01-19T23:42:44.542Z,5.70
2023-01-19T23:45:14.471Z,6.37
2023-01-19T23:47:44.788Z,5.17
2023-01-19T23:50:13.921Z,5.13
2023-01-19T23:52:42.392Z,4.70
2023-01-19T23:55:11.779Z,5.20
2023-01-19T23:57:42.705Z,4.50
